createdAt,value
2022-10-18T00:01:00.246Z,17.88
2022-10-18T00:03:45.600Z,17.88
2022-10-18T00:06:30.959Z,17.86
2022-10-18T00:09:16.140Z,17.84
2022-10-18T00:12:01.934Z,17.83
2022-10-18T00:14:50.700Z,17.82
2022-10-18T00:17:39.806Z,17.82
2022-10-18T00:20:28.341Z,17.80
2022-10-18T00:23:13.611Z,17.79
2022-10-18T00:26:08.410Z,17.81
2022-10-18T00:28:57.063Z,17.82
2022-10-18T00:31:43.659Z,17.84
2022-10-18T00:34:29.177Z,17.85
2022-10-18T00:37:14.275Z,17.81
2022-10-18T00:39:59.508Z,17.81
2022-10-18T00:42:44.689Z,17.80
2022-10-18T00:45:30.218Z,17.80
2022-10-18T00:48:17.925Z,17.80
2022-10-18T00:51:03.348Z,17.80
2022-10-18T00:53:49.282Z,17.81
2022-10-18T00:56:34.933Z,17.81
2022-10-18T00:59:21.346Z,17.79
2022-10-18T01:02:07.882Z,17.79
2022-10-18T01:04:53.423Z,17.79
2022-10-18T01:08:03.742Z,17.81
2022-10-18T01:11:00.385Z,17.80
2022-10-18T01:14:24.324Z,17.83
2022-10-18T01:17:36.008Z,17.87
2022-10-18T01:21:01.901Z,17.90
2022-10-18T01:24:24.487Z,17.89
2022-10-18T01:27:24.648Z,17.88
2022-10-18T01:30:38.117Z,17.87
2022-10-18T01:33:50.918Z,17.85
2022-10-18T01:36:40.431Z,17.85
2022-10-18T01:39:29.816Z,17.85
2022-10-18T01:42:19.984Z,17.85
2022-10-18T01:45:08.053Z,17.82
2022-10-18T01:47:54.580Z,17.80
2022-10-18T01:50:40.366Z,17.79
2022-10-18T01:53:33.456Z,17.79
2022-10-18T01:56:18.751Z,17.78
2022-10-18T01:59:41.143Z,17.75
2022-10-18T02:03:00.365Z,17.74
2022-10-18T02:05:58.804Z,17.74
2022-10-18T02:08:52.284Z,17.73
2022-10-18T02:11:39.694Z,17.74
2022-10-18T02:14:25.758Z,17.73
2022-10-18T02:17:12.954Z,17.73
2022-10-18T02:20:01.045Z,17.73
2022-10-18T02:22:48.991Z,17.73
2022-10-18T02:25:36.112Z,17.71
2022-10-18T02:28:21.943Z,17.70
2022-10-18T02:31:10.331Z,17.65
2022-10-18T02:34:07.366Z,17.60
2022-10-18T02:36:53.781Z,17.56
2022-10-18T02:39:57.670Z,17.54
2022-10-18T02:42:54.034Z,17.51
2022-10-18T02:45:39.828Z,17.48
2022-10-18T02:48:25.255Z,17.48
2022-10-18T02:51:10.964Z,17.43
2022-10-18T02:53:56.045Z,17.42
2022-10-18T02:56:41.600Z,17.39
2022-10-18T02:59:27.105Z,17.38
2022-10-18T03:02:12.483Z,17.36
2022-10-18T03:04:58.079Z,17.35
2022-10-18T03:07:43.220Z,17.35
2022-10-18T03:10:28.373Z,17.35
2022-10-18T03:13:13.982Z,17.35
2022-10-18T03:16:00.101Z,17.37
2022-10-18T03:18:45.421Z,17.32
2022-10-18T03:21:30.601Z,17.11
2022-10-18T03:24:15.971Z,17.02
2022-10-18T03:27:01.191Z,16.96
2022-10-18T03:29:46.669Z,16.93
2022-10-18T03:32:32.089Z,16.94
2022-10-18T03:35:17.317Z,16.95
2022-10-18T03:38:02.603Z,16.96
2022-10-18T03:40:47.946Z,16.97
2022-10-18T03:43:33.459Z,16.98
2022-10-18T03:46:18.669Z,17.01
2022-10-18T03:49:04.142Z,16.98
2022-10-18T03:51:49.373Z,16.97
2022-10-18T03:54:34.686Z,16.94
2022-10-18T03:57:19.892Z,16.92
2022-10-18T04:00:05.961Z,16.91
2022-10-18T04:02:57.306Z,16.86
2022-10-18T04:05:42.609Z,16.85
2022-10-18T04:08:27.706Z,16.84
2022-10-18T04:11:13.087Z,16.81
2022-10-18T04:13:58.264Z,16.77
2022-10-18T04:16:43.478Z,16.77
2022-10-18T04:19:28.880Z,16.77
2022-10-18T04:22:14.377Z,16.75
2022-10-18T04:24:59.705Z,16.76
2022-10-18T04:27:44.890Z,16.73
2022-10-18T04:30:30.242Z,16.66
2022-10-18T04:33:15.753Z,16.64
2022-10-18T04:36:01.238Z,16.66
2022-10-18T04:38:47.008Z,16.66
2022-10-18T04:41:32.382Z,16.64
2022-10-18T04:44:17.582Z,16.61
2022-10-18T04:47:02.710Z,16.59
2022-10-18T04:49:48.054Z,16.58
2022-10-18T04:52:33.373Z,16.56
2022-10-18T04:55:18.508Z,16.57
2022-10-18T04:58:04.001Z,16.58
2022-10-18T05:00:50.293Z,16.54
2022-10-18T05:03:35.510Z,16.54
2022-10-18T05:06:21.634Z,16.55
2022-10-18T05:09:07.230Z,16.57
2022-10-18T05:11:52.487Z,16.56
2022-10-18T05:14:38.121Z,16.58
2022-10-18T05:17:23.486Z,16.58
2022-10-18T05:20:09.578Z,16.57
2022-10-18T05:22:54.722Z,16.53
2022-10-18T05:25:41.169Z,16.45
2022-10-18T05:28:42.145Z,16.36
2022-10-18T05:31:27.635Z,16.28
2022-10-18T05:34:12.928Z,16.21
2022-10-18T05:36:58.537Z,16.18
2022-10-18T05:39:43.879Z,16.17
2022-10-18T05:42:29.546Z,16.16
2022-10-18T05:45:14.918Z,16.13
2022-10-18T05:48:00.468Z,16.17
2022-10-18T05:50:46.197Z,16.19
2022-10-18T05:53:36.615Z,16.18
2022-10-18T05:56:22.267Z,16.20
2022-10-18T05:59:12.022Z,16.23
2022-10-18T06:01:57.277Z,16.29
2022-10-18T06:04:42.710Z,16.35
2022-10-18T06:07:31.623Z,16.42
2022-10-18T06:10:17.094Z,16.46
2022-10-18T06:13:02.823Z,16.48
2022-10-18T06:15:48.102Z,16.46
2022-10-18T06:18:36.198Z,16.42
2022-10-18T06:21:23.807Z,16.43
2022-10-18T06:24:09.433Z,16.43
2022-10-18T06:26:54.850Z,16.45
2022-10-18T06:29:39.966Z,16.45
2022-10-18T06:32:25.138Z,16.46
2022-10-18T06:35:10.231Z,16.45
2022-10-18T06:37:55.681Z,16.36
2022-10-18T06:40:40.779Z,16.34
2022-10-18T06:43:26.752Z,16.35
2022-10-18T06:46:12.152Z,16.38
2022-10-18T06:48:57.745Z,16.43
2022-10-18T06:51:43.715Z,16.51
2022-10-18T06:54:28.758Z,16.55
2022-10-18T06:57:13.959Z,16.56
2022-10-18T06:59:59.014Z,16.53
2022-10-18T07:02:44.166Z,16.51
2022-10-18T07:05:29.599Z,16.50
2022-10-18T07:08:14.975Z,16.51
2022-10-18T07:11:00.501Z,16.52
2022-10-18T07:13:46.010Z,16.54
2022-10-18T07:16:33.108Z,16.56
2022-10-18T07:19:18.771Z,16.57
2022-10-18T07:22:04.309Z,16.58
2022-10-18T07:24:49.567Z,16.61
2022-10-18T07:27:39.169Z,16.62
2022-10-18T07:30:24.676Z,16.63
2022-10-18T07:33:10.018Z,16.68
2022-10-18T07:35:55.148Z,16.72
2022-10-18T07:38:41.126Z,16.74
2022-10-18T07:41:26.822Z,16.76
2022-10-18T07:44:12.450Z,16.82
2022-10-18T07:46:58.072Z,16.85
2022-10-18T07:49:43.290Z,16.87
2022-10-18T07:52:28.474Z,16.88
2022-10-18T07:55:13.897Z,16.82
2022-10-18T07:58:00.284Z,16.74
2022-10-18T08:00:45.466Z,16.69
2022-10-18T08:03:31.242Z,16.68
2022-10-18T08:06:18.810Z,16.69
2022-10-18T08:09:04.521Z,16.68
2022-10-18T08:11:49.455Z,16.67
2022-10-18T08:14:34.987Z,16.67
2022-10-18T08:17:20.363Z,16.69
2022-10-18T08:20:12.465Z,16.66
2022-10-18T08:23:04.726Z,16.63
2022-10-18T08:25:50.145Z,16.59
2022-10-18T08:28:36.755Z,16.56
2022-10-18T08:31:22.318Z,16.53
2022-10-18T08:34:07.721Z,16.50
2022-10-18T08:36:52.888Z,16.49
2022-10-18T08:39:38.143Z,16.49
2022-10-18T08:43:03.815Z,16.47
2022-10-18T08:45:50.884Z,16.45
2022-10-18T08:48:41.393Z,16.44
2022-10-18T08:51:39.418Z,16.38
2022-10-18T08:54:54.136Z,16.35
2022-10-18T08:57:39.709Z,16.37
2022-10-18T09:00:30.690Z,16.37
2022-10-18T09:03:37.797Z,16.39
2022-10-18T09:06:29.202Z,16.42
2022-10-18T09:09:34.514Z,16.41
2022-10-18T09:12:32.350Z,16.38
2022-10-18T09:15:47.450Z,16.34
2022-10-18T09:18:38.890Z,16.23
2022-10-18T09:21:48.355Z,15.99
2022-10-18T09:24:40.039Z,15.87
2022-10-18T09:27:37.431Z,15.86
2022-10-18T09:30:33.645Z,15.87
2022-10-18T09:33:39.062Z,15.94
2022-10-18T09:36:27.623Z,15.98
2022-10-18T09:39:25.406Z,16.01
2022-10-18T09:42:32.025Z,16.04
2022-10-18T09:45:29.252Z,16.07
2022-10-18T09:48:24.084Z,16.12
2022-10-18T09:51:17.643Z,16.16
2022-10-18T09:54:12.130Z,16.18
2022-10-18T09:56:57.342Z,16.18
2022-10-18T09:59:45.830Z,16.17
2022-10-18T10:02:31.162Z,16.15
2022-10-18T10:05:16.353Z,16.15
2022-10-18T10:08:02.815Z,16.18
2022-10-18T10:10:48.508Z,16.19
2022-10-18T10:13:33.974Z,16.19
2022-10-18T10:16:19.234Z,16.22
2022-10-18T10:19:04.616Z,16.23
2022-10-18T10:21:53.244Z,16.24
2022-10-18T10:24:49.418Z,16.20
2022-10-18T10:27:43.393Z,16.21
2022-10-18T10:30:35.692Z,16.20
2022-10-18T10:33:32.578Z,16.17
2022-10-18T10:36:20.012Z,16.17
2022-10-18T10:39:18.813Z,16.18
2022-10-18T10:42:05.883Z,16.16
2022-10-18T10:44:55.322Z,16.19
2022-10-18T10:47:40.483Z,16.19
2022-10-18T10:50:28.383Z,16.26
2022-10-18T10:53:38.539Z,16.29
2022-10-18T10:56:30.171Z,16.32
2022-10-18T10:59:20.380Z,16.34
2022-10-18T11:02:18.097Z,16.35
2022-10-18T11:05:29.196Z,16.37
2022-10-18T11:08:43.286Z,16.41
2022-10-18T11:11:35.061Z,16.39
2022-10-18T11:14:27.235Z,16.38
2022-10-18T11:17:34.929Z,16.36
2022-10-18T11:20:36.816Z,16.34
2022-10-18T11:23:30.064Z,16.34
2022-10-18T11:26:35.200Z,16.37
2022-10-18T11:29:47.902Z,16.45
2022-10-18T11:33:10.913Z,16.54
2022-10-18T11:36:56.232Z,16.44
2022-10-18T11:40:25.499Z,16.35
2022-10-18T11:43:30.071Z,16.35
2022-10-18T11:46:24.027Z,16.36
2022-10-18T11:49:16.068Z,16.43
2022-10-18T11:52:29.415Z,16.50
2022-10-18T11:55:54.245Z,16.56
2022-10-18T11:58:51.325Z,16.60
2022-10-18T12:01:36.897Z,16.63
2022-10-18T12:04:26.034Z,16.72
2022-10-18T12:07:17.935Z,16.76
2022-10-18T12:10:09.723Z,16.79
2022-10-18T12:13:02.146Z,16.84
2022-10-18T12:15:47.558Z,16.91
2022-10-18T12:18:36.031Z,16.94
2022-10-18T12:21:25.478Z,16.91
2022-10-18T12:24:18.335Z,16.88
2022-10-18T12:27:04.641Z,16.92
2022-10-18T12:30:11.067Z,16.93
2022-10-18T12:33:26.733Z,16.96
2022-10-18T12:36:22.040Z,16.90
2022-10-18T12:39:32.463Z,16.97
2022-10-18T12:42:40.237Z,16.95
2022-10-18T12:45:37.423Z,16.88
2022-10-18T12:48:45.373Z,16.90
2022-10-18T12:51:30.840Z,16.97
2022-10-18T12:54:19.101Z,16.98
2022-10-18T12:57:26.495Z,17.04
2022-10-18T13:00:32.068Z,17.13
2022-10-18T13:03:20.783Z,17.16
2022-10-18T13:06:06.900Z,17.21
2022-10-18T13:09:19.536Z,17.21
2022-10-18T13:12:11.266Z,17.22
2022-10-18T13:15:24.650Z,17.23
2022-10-18T13:18:26.289Z,17.24
2022-10-18T13:22:10.558Z,17.34
2022-10-18T13:25:33.886Z,17.30
2022-10-18T13:28:41.178Z,17.37
2022-10-18T13:31:46.089Z,17.37
2022-10-18T13:34:35.440Z,17.32
2022-10-18T13:37:24.450Z,17.35
2022-10-18T13:40:24.239Z,17.38
2022-10-18T13:43:51.556Z,17.37
2022-10-18T13:46:37.713Z,17.42
2022-10-18T13:49:34.957Z,17.52
2022-10-18T13:52:46.774Z,17.59
2022-10-18T13:55:45.153Z,17.58
2022-10-18T13:59:05.874Z,17.42
2022-10-18T14:02:22.386Z,17.28
2022-10-18T14:05:25.007Z,17.22
2022-10-18T14:08:52.388Z,17.19
2022-10-18T14:12:10.274Z,17.17
2022-10-18T14:15:07.350Z,17.30
2022-10-18T14:18:15.232Z,17.40
2022-10-18T14:21:13.920Z,17.42
2022-10-18T14:23:59.916Z,17.48
2022-10-18T14:26:45.532Z,17.61
2022-10-18T14:29:31.153Z,17.62
2022-10-18T14:32:28.154Z,17.57
2022-10-18T14:35:33.639Z,17.40
2022-10-18T14:38:22.259Z,17.34
2022-10-18T14:41:20.413Z,17.41
2022-10-18T14:44:24.664Z,17.45
2022-10-18T14:47:24.790Z,17.40
2022-10-18T14:50:30.387Z,17.39
2022-10-18T14:53:25.109Z,17.36
2022-10-18T14:56:25.762Z,17.34
2022-10-18T14:59:44.279Z,17.32
2022-10-18T15:02:32.302Z,17.35
2022-10-18T15:05:23.581Z,17.42
2022-10-18T15:08:09.866Z,17.28
2022-10-18T15:10:55.655Z,17.17
2022-10-18T15:14:00.640Z,17.04
2022-10-18T15:16:48.589Z,16.90
2022-10-18T15:19:39.172Z,16.80
2022-10-18T15:22:31.859Z,16.82
2022-10-18T15:25:21.907Z,16.85
2022-10-18T15:28:43.492Z,16.90
2022-10-18T15:31:44.738Z,16.77
2022-10-18T15:34:30.710Z,16.62
2022-10-18T15:37:41.527Z,16.51
2022-10-18T15:40:36.176Z,16.39
2022-10-18T15:43:27.879Z,16.34
2022-10-18T15:46:29.948Z,16.24
2022-10-18T15:49:44.764Z,16.13
2022-10-18T15:52:39.519Z,16.06
2022-10-18T15:55:31.183Z,16.04
2022-10-18T15:58:21.358Z,16.01
2022-10-18T16:01:21.839Z,15.96
2022-10-18T16:04:22.937Z,15.91
2022-10-18T16:07:11.501Z,15.91
2022-10-18T16:09:56.636Z,15.86
2022-10-18T16:12:42.222Z,15.84
2022-10-18T16:15:27.354Z,15.78
2022-10-18T16:18:18.271Z,15.75
2022-10-18T16:21:03.704Z,15.70
2022-10-18T16:23:49.796Z,15.69
2022-10-18T16:26:36.055Z,15.65
2022-10-18T16:29:25.759Z,15.63
2022-10-18T16:32:11.062Z,15.62
2022-10-18T16:34:56.336Z,15.62
2022-10-18T16:37:41.763Z,15.60
2022-10-18T16:40:27.631Z,15.59
2022-10-18T16:43:13.055Z,15.57
2022-10-18T16:45:58.647Z,15.55
2022-10-18T16:48:44.981Z,15.54
2022-10-18T16:51:30.390Z,15.49
2022-10-18T16:54:15.484Z,15.46
2022-10-18T16:57:00.579Z,15.42
2022-10-18T16:59:46.127Z,15.40
2022-10-18T17:02:31.837Z,15.39
2022-10-18T17:05:18.590Z,15.32
2022-10-18T17:08:03.713Z,15.28
2022-10-18T17:10:52.870Z,15.23
2022-10-18T17:13:38.600Z,15.20
2022-10-18T17:16:26.578Z,15.17
2022-10-18T17:19:12.078Z,15.12
2022-10-18T17:22:02.276Z,15.08
2022-10-18T17:24:47.927Z,15.05
2022-10-18T17:27:33.177Z,15.01
2022-10-18T17:30:18.965Z,14.98
2022-10-18T17:33:04.343Z,14.96
2022-10-18T17:35:49.518Z,14.96
2022-10-18T17:38:34.927Z,14.90
2022-10-18T17:41:20.688Z,14.85
2022-10-18T17:44:06.222Z,14.81
2022-10-18T17:46:51.642Z,14.78
2022-10-18T17:49:37.225Z,14.77
2022-10-18T17:52:27.099Z,14.73
2022-10-18T17:55:12.725Z,14.71
2022-10-18T17:57:58.190Z,14.69
2022-10-18T18:00:44.712Z,14.66
2022-10-18T18:03:30.013Z,14.60
2022-10-18T18:06:21.549Z,14.58
2022-10-18T18:09:10.379Z,14.56
2022-10-18T18:11:56.166Z,14.54
2022-10-18T18:14:41.516Z,14.53
2022-10-18T18:17:33.970Z,14.51
2022-10-18T18:20:20.575Z,14.50
2022-10-18T18:23:05.718Z,14.47
2022-10-18T18:25:58.135Z,14.45
2022-10-18T18:28:44.264Z,14.50
2022-10-18T18:31:32.449Z,14.53
2022-10-18T18:34:22.701Z,14.54
2022-10-18T18:37:08.648Z,14.55
2022-10-18T18:39:54.102Z,14.54
2022-10-18T18:42:39.637Z,14.51
2022-10-18T18:45:24.808Z,14.47
2022-10-18T18:48:10.399Z,14.47
2022-10-18T18:50:55.485Z,14.46
2022-10-18T18:53:42.978Z,14.46
2022-10-18T18:56:31.365Z,14.46
2022-10-18T18:59:20.066Z,14.43
2022-10-18T19:02:05.218Z,14.40
2022-10-18T19:04:51.318Z,14.34
2022-10-18T19:07:36.607Z,14.36
2022-10-18T19:10:21.719Z,14.32
2022-10-18T19:13:07.131Z,14.30
2022-10-18T19:15:52.541Z,14.28
2022-10-18T19:18:38.126Z,14.25
2022-10-18T19:21:25.308Z,14.25
2022-10-18T19:24:10.765Z,14.23
2022-10-18T19:27:01.773Z,14.21
2022-10-18T19:29:48.629Z,14.17
2022-10-18T19:32:33.684Z,14.14
2022-10-18T19:35:19.041Z,14.11
2022-10-18T19:38:04.246Z,14.07
2022-10-18T19:40:53.627Z,13.99
2022-10-18T19:43:39.010Z,13.94
2022-10-18T19:46:24.970Z,13.93
2022-10-18T19:49:10.429Z,13.86
2022-10-18T19:51:56.485Z,13.84
2022-10-18T19:54:41.868Z,13.81
2022-10-18T19:57:27.166Z,13.80
2022-10-18T20:00:16.106Z,13.80
2022-10-18T20:03:04.284Z,13.75
2022-10-18T20:06:01.221Z,13.69
2022-10-18T20:08:49.868Z,13.66
2022-10-18T20:11:35.745Z,13.62
2022-10-18T20:14:21.311Z,13.60
2022-10-18T20:17:06.811Z,13.55
2022-10-18T20:19:52.035Z,13.52
2022-10-18T20:22:37.711Z,13.53
2022-10-18T20:25:29.487Z,13.50
2022-10-18T20:28:43.285Z,13.53
2022-10-18T20:31:35.573Z,13.51
2022-10-18T20:34:28.624Z,13.50
2022-10-18T20:37:16.350Z,13.49
2022-10-18T20:40:02.047Z,13.47
2022-10-18T20:42:47.215Z,13.43
2022-10-18T20:45:32.689Z,13.39
2022-10-18T20:48:18.159Z,13.35
2022-10-18T20:51:09.504Z,13.32
2022-10-18T20:53:55.048Z,13.30
2022-10-18T20:56:40.668Z,13.24
2022-10-18T20:59:26.201Z,13.20
2022-10-18T21:02:14.728Z,13.19
2022-10-18T21:05:05.364Z,13.14
2022-10-18T21:07:50.490Z,13.10
2022-10-18T21:10:35.928Z,13.05
2022-10-18T21:13:20.980Z,13.00
2022-10-18T21:16:07.633Z,12.96
2022-10-18T21:18:53.700Z,12.98
2022-10-18T21:21:43.243Z,12.95
2022-10-18T21:24:29.879Z,12.97
2022-10-18T21:27:15.356Z,12.94
2022-10-18T21:30:00.660Z,12.92
2022-10-18T21:32:46.076Z,12.88
2022-10-18T21:35:35.547Z,12.85
2022-10-18T21:38:20.690Z,12.80
2022-10-18T21:41:13.700Z,12.77
2022-10-18T21:43:59.269Z,12.76
2022-10-18T21:46:46.521Z,12.75
2022-10-18T21:49:35.003Z,12.71
2022-10-18T21:52:20.585Z,12.69
2022-10-18T21:55:07.192Z,12.71
2022-10-18T21:57:52.712Z,12.73
2022-10-18T22:00:39.016Z,12.70
2022-10-18T22:03:24.901Z,12.65
2022-10-18T22:06:14.447Z,12.64
2022-10-18T22:09:04.588Z,12.62
2022-10-18T22:12:11.605Z,12.60
2022-10-18T22:14:57.122Z,12.64
2022-10-18T22:17:42.286Z,12.68
2022-10-18T22:20:27.698Z,12.63
2022-10-18T22:23:16.059Z,12.65
2022-10-18T22:26:09.067Z,12.66
2022-10-18T22:29:04.376Z,12.69
2022-10-18T22:31:52.877Z,12.68
2022-10-18T22:34:39.351Z,12.68
2022-10-18T22:37:27.698Z,12.69
2022-10-18T22:40:12.898Z,12.73
2022-10-18T22:42:58.655Z,12.76
2022-10-18T22:45:43.691Z,12.79
2022-10-18T22:48:29.542Z,12.82
2022-10-18T22:51:15.349Z,12.81
2022-10-18T22:54:00.938Z,12.87
2022-10-18T22:56:46.227Z,12.87
2022-10-18T23:00:06.600Z,12.92
2022-10-18T23:02:51.734Z,12.96
2022-10-18T23:05:45.258Z,12.99
2022-10-18T23:08:31.403Z,13.00
2022-10-18T23:11:17.546Z,13.02
2022-10-18T23:14:03.991Z,12.98
2022-10-18T23:16:52.026Z,12.95
2022-10-18T23:19:37.266Z,12.97
2022-10-18T23:22:22.473Z,13.00
2022-10-18T23:25:10.244Z,13.03
2022-10-18T23:27:57.354Z,12.99
2022-10-18T23:30:45.377Z,12.95
2022-10-18T23:33:36.935Z,12.92
2022-10-18T23:36:23.199Z,12.89
2022-10-18T23:39:08.474Z,12.86
2022-10-18T23:41:53.777Z,12.86
2022-10-18T23:44:39.179Z,12.87
2022-10-18T23:47:24.674Z,12.89
2022-10-18T23:50:10.352Z,12.89
2022-10-18T23:52:55.493Z,12.84
2022-10-18T23:55:53.675Z,12.88
2022-10-18T23:58:39.592Z,12.91
